Huslia Airport


Codes: PAHL/HSL
Name: Huslia Airport
City: Huslia
Country: United States
Elevation: 220 ft.
Wikipedia:

Photos at Huslia Airport


   Photos courtesy of SpottingLog. You can add your own sightings and photos by signing up for a free trial today.



No photos found.

Weather at Huslia Airport


Time (UTC)DescriptionTempratureWindCloud coverageVisibilityPressureHumidity
25-Jun-2024 15:00Few Clouds12°C2 mph, E23%10000m1013hPa63%
25-Jun-2024 18:00Few Clouds16°C4 mph, E15%10000m1014hPa51%
25-Jun-2024 21:00Scattered Clouds22°C4 mph, SE49%10000m1013hPa37%
26-Jun-2024 00:00Scattered Clouds25°C4 mph, S38%10000m1012hPa37%
26-Jun-2024 03:00Overcast Clouds21°C2 mph, SW97%10000m1012hPa56%
26-Jun-2024 06:00Overcast Clouds22°C4 mph, SE91%10000m1011hPa53%
26-Jun-2024 09:00Overcast Clouds17°C9 mph, SE98%10000m1012hPa64%
26-Jun-2024 12:00Overcast Clouds16°C2 mph, E98%10000m1012hPa70%
26-Jun-2024 15:00Overcast Clouds17°C4 mph, NE90%10000m1011hPa68%
26-Jun-2024 18:00Broken Clouds22°C7 mph, NE68%10000m1011hPa54%
26-Jun-2024 21:00Scattered Clouds26°C11 mph, NE44%10000m1010hPa40%
27-Jun-2024 00:00Broken Clouds25°C2 mph, SW56%10000m1008hPa45%
27-Jun-2024 03:00Broken Clouds28°C11 mph, E56%10000m1006hPa33%
27-Jun-2024 06:00Scattered Clouds26°C9 mph, E46%10000m1006hPa46%
27-Jun-2024 09:00Light Rain20°C9 mph, E50%10000m1006hPa50%
27-Jun-2024 12:00Light Rain17°C7 mph, E52%10000m1006hPa66%
27-Jun-2024 15:00Light Rain17°C7 mph, S26%10000m1007hPa76%
27-Jun-2024 18:00Light Rain17°C13 mph, SW28%10000m1008hPa73%
27-Jun-2024 21:00Light Rain21°C11 mph, S45%10000m1008hPa54%
28-Jun-2024 00:00Light Rain20°C11 mph, S52%10000m1008hPa57%
28-Jun-2024 03:00Light Rain22°C4 mph, SW100%10000m1007hPa45%
28-Jun-2024 06:00Overcast Clouds20°C13 mph, SW100%10000m1007hPa49%
28-Jun-2024 09:00Overcast Clouds16°C11 mph, SW100%10000m1008hPa69%
28-Jun-2024 12:00Overcast Clouds15°C9 mph, W100%10000m1009hPa80%
28-Jun-2024 15:00Overcast Clouds16°C9 mph, SW92%10000m1010hPa71%
28-Jun-2024 18:00Overcast Clouds19°C11 mph, SW95%10000m1010hPa50%
28-Jun-2024 21:00Overcast Clouds21°C11 mph, SW100%10000m1011hPa44%
29-Jun-2024 00:00Overcast Clouds22°C9 mph, SW95%10000m1010hPa42%
29-Jun-2024 03:00Broken Clouds22°C7 mph, SW80%10000m1009hPa42%
29-Jun-2024 06:00Broken Clouds21°C2 mph, SW79%10000m1009hPa49%
29-Jun-2024 09:00Scattered Clouds16°C4 mph, NW46%10000m1009hPa64%
29-Jun-2024 12:00Broken Clouds15°C7 mph, NW59%10000m1009hPa64%
29-Jun-2024 15:00Broken Clouds16°C4 mph, NW80%10000m1009hPa63%
29-Jun-2024 18:00Overcast Clouds19°C4 mph, NW85%10000m1008hPa54%
29-Jun-2024 21:00Broken Clouds22°C7 mph, NW65%10000m1007hPa42%
30-Jun-2024 00:00Broken Clouds24°C7 mph, NW54%10000m1007hPa36%
30-Jun-2024 03:00Broken Clouds24°C11 mph, NW56%10000m1006hPa38%
30-Jun-2024 06:00Scattered Clouds22°C9 mph, NW43%10000m1006hPa50%
30-Jun-2024 09:00Scattered Clouds17°C9 mph, NW27%10000m1007hPa65%
30-Jun-2024 12:00Scattered Clouds14°C7 mph, NW36%10000m1007hPa66%